Relevés horaires St-Hubert (Belgique)


Relevés horaires à St-Hubert - Vendredi 02 Juill. 2021
Heure UTC1 Température [°C] Vent [km/h] Hum. [%] Pres.4 [hPa] Visi. [Km] Nébu. [octa] Préc.5 [mm] Cond.
2m. Res. Ros. Dir.2 Vit. Moy. Raf.3
23:00 13.9 13.9 11.3 SE 3.7 3.7 5.6 84 1018(-0.3/3h) 30 0/8 -- --
22:00 13.0 13.0 11.4 ESE 1.9 1.9 3.7 90 1018.3(0.0/3h) 35 0/8 -- --
21:00 14.5 14.5 10.9 SE 1.9 3.7 5.6 79 1018.3(0.3/3h) 35 0/8 -- --
20:00 16.1 16.1 12.9 NNO 0.0 1.9 3.7 81 1017.7(-0.1/3h) 35 1/8 -- --
19:00 18.7 18.7 12.1 N 1.9 3.7 5.6 65 1017.1(-0.5/3h) 35 0/8 -- --
18:00 18.7 18.7 11.9 NO 1.9 7.4 11.1 65 1017(-0.6/3h) 35 0/8 0/12h
--
17:00 19.3 19.3 11.8 O 3.7 5.6 11.1 62 1017.1(-0.2/3h) 30 0/8 -- --
16:00 19.4 19.4 11.3 O 5.6 7.4 11.1 59 1017.4(0.1/3h) 28 0/8 -- --
15:00 19.6 19.6 12.8 SO 5.6 7.4 11.1 65 1017.5(-0.1/3h) 30 2/8 -- --
14:00 18.6 18.6 12.0 SO 5.6 7.4 11.1 65 1017.5(-0.4/3h) 35 8/8 -- --
13:00 18.3 18.3 12.2 O 5.6 5.6 11.1 68 1017.5(0.1/3h) 30 6/8 -- --
12:00 17.6 17.6 12.6 OSO 5.6 7.4 13.0 72 1017.8(0.1/3h) 23 7/8 0/6h
--
11:00 15.7 15.7 11.9 OSO 5.6 7.4 13.0 78 1018.5(0.7/3h) 19 8/8 -- --
10:00 15.9 15.9 12.1 OSO 7.4 7.4 13.0 78 1018.2(0.7/3h) 17 7/8 -- --
09:00 14.5 14.5 11.5 OSO 5.6 5.6 9.3 82 1018.4(1.0/3h) 16 8/8 -- --
08:00 13.1 13.1 10.4 SO 3.7 3.7 7.4 84 1018.5(0.8/3h) 18 8/8 -- --
07:00 12.0 12.0 9.5 SO 3.7 3.7 7.4 85 1018.4(0.7/3h) 17 8/8 -- --
06:00 11.4 11.4 8.7 SSO 1.9 3.7 5.6 83 1018.1(0.2/3h) 22 8/8 0/12h
--
05:00 10.9 10.9 8.3 SO 1.9 3.7 5.6 84 1018.2(-0.1/3h) 18 8/8 -- --
04:00 9.6 9.6 7.2 SSO 3.7 3.7 5.6 85 1018.3(-0.4/3h) 25 6/8 -- --
03:00 8.4 8.4 5.5 SSO 1.9 1.9 3.7 82 1018.6(-0.5/3h) 23 0/8 -- --
02:00 8.5 8.5 6.1 O 1.9 1.9 1.9 85 1018.7(-0.4/3h) 15 1/8 -- --
01:00 7.2 7.2 6.1 S 1.9 1.9 1.9 93 1019.3(-0.3/3h) -- 0/8 -- --
00:00 8.0 8.0 7.0 SO 1.9 5.6 9.3 93 1019.2(0.1/3h) 9 0/8 0/6h
0/24h
--

1 Coordinated Universal Time. Actuellement il est 22:00 locale et 20:00 UTC.

2 Le vent souffle depuis la direction indiquée vers la direction oposée.

3 Les rafales max. sont disponible 40 min après l'heure du relevé.

4 Pour les stations d'altitude (plus de 600m) le géopotentiel du niveau le plus proche de la pression obligatoire est indiqué.

5 Les stations disposant d'un diffuseur peuvent indiquer "trace". Cela signifie que des précipitations ont touchés le sol mais que la quantité est inférieure à 0.1 mm.

Récapitulatif de la journée
Température [°C] Vent [km/h] Ensoleillement4 [h] Precipitations totale5 [mm] Pression [Hpa]
Min1 Max.2 Moy.3 Max. Min Max.
7.0 20.0 4.7 13.0 0 h 0 min 0 1017.0 1019.3

1 Température minimale relevée entre 18:00 UTC la veille et 18:00 UTC le jour donné.

2 Température maximale relevée entre 06:00 UTC le jour donné et 06:00 UTC le lendemain.

3 Vent moyen de la journée basé sur les relevés horaires.

4 Ensoleillement en heures relevé entre 06:00 UTC la veille et 06:00 UTC le jour donné.

5 Précipitations totales tombées entre 06:00 UTC la jour donné et 06:00 UTC le lendemain.

Graphiques horaires